createdAt,value
2023-02-09T00:01:23.429Z,14.67
2023-02-09T00:03:52.950Z,16.42
2023-02-09T00:06:21.812Z,16.17
2023-02-09T00:08:48.361Z,17.65
2023-02-09T00:11:53.832Z,17.45
2023-02-09T00:14:22.174Z,15.60
2023-02-09T00:16:49.970Z,16.73
2023-02-09T00:19:17.101Z,16.88
2023-02-09T00:21:43.661Z,16.65
2023-02-09T00:24:10.965Z,16.48
2023-02-09T00:26:37.871Z,15.00
2023-02-09T00:29:04.592Z,16.08
2023-02-09T00:31:31.611Z,16.02
2023-02-09T00:33:58.146Z,15.52
2023-02-09T00:36:24.708Z,16.30
2023-02-09T00:38:51.238Z,16.33
2023-02-09T00:41:18.256Z,17.50
2023-02-09T00:43:44.782Z,16.52
2023-02-09T00:46:11.482Z,16.00
2023-02-09T00:48:38.144Z,16.13
2023-02-09T00:51:04.856Z,15.55
2023-02-09T00:53:31.527Z,15.45
2023-02-09T00:55:59.922Z,16.25
2023-02-09T00:58:26.475Z,16.25
2023-02-09T01:00:53.292Z,16.85
2023-02-09T01:03:19.860Z,14.82
2023-02-09T01:05:46.428Z,15.88
2023-02-09T01:08:12.977Z,15.48
2023-02-09T01:10:39.515Z,16.40
2023-02-09T01:13:06.598Z,14.82
2023-02-09T01:15:33.147Z,16.58
2023-02-09T01:17:59.775Z,16.42
2023-02-09T01:20:26.725Z,15.38
2023-02-09T01:22:53.296Z,16.27
2023-02-09T01:25:19.973Z,15.90
2023-02-09T01:27:46.748Z,15.85
2023-02-09T01:30:13.657Z,15.75
2023-02-09T01:32:40.175Z,16.20
2023-02-09T01:35:07.042Z,14.80
2023-02-09T01:37:34.576Z,14.93
2023-02-09T01:40:01.144Z,15.45
2023-02-09T01:42:27.733Z,16.38
2023-02-09T01:45:25.558Z,14.77
2023-02-09T01:47:59.742Z,15.45
2023-02-09T01:50:27.681Z,15.63
2023-02-09T01:52:54.839Z,14.70
2023-02-09T01:55:24.768Z,15.77
2023-02-09T01:57:59.954Z,15.02
2023-02-09T02:00:27.242Z,15.65
2023-02-09T02:03:01.822Z,14.93
2023-02-09T02:05:29.521Z,15.20
2023-02-09T02:08:03.661Z,15.35
2023-02-09T02:10:30.811Z,15.43
2023-02-09T02:12:57.761Z,15.05
2023-02-09T02:15:28.894Z,16.92
2023-02-09T02:18:23.460Z,16.80
2023-02-09T02:20:56.095Z,14.75
2023-02-09T02:23:35.191Z,15.55
2023-02-09T02:26:26.320Z,16.20
2023-02-09T02:29:11.795Z,16.45
2023-02-09T02:31:50.625Z,16.70
2023-02-09T02:34:31.115Z,16.00
2023-02-09T02:37:10.050Z,16.30
2023-02-09T02:39:57.643Z,15.10
2023-02-09T02:42:45.922Z,16.50
2023-02-09T02:45:18.781Z,16.80
2023-02-09T02:47:50.795Z,16.50
2023-02-09T02:50:21.155Z,15.27
2023-02-09T02:52:49.205Z,16.02
2023-02-09T02:55:18.664Z,15.77
2023-02-09T02:57:49.686Z,15.82
2023-02-09T03:00:23.188Z,17.25
2023-02-09T03:02:55.670Z,17.58
2023-02-09T03:05:23.920Z,16.08
2023-02-09T03:07:51.148Z,16.33
2023-02-09T03:10:35.478Z,16.80
2023-02-09T03:13:05.009Z,16.27
2023-02-09T03:18:30.509Z,15.95
2023-02-09T03:21:16.502Z,16.75
2023-02-09T03:24:02.348Z,15.65
2023-02-09T03:26:33.441Z,15.05
2023-02-09T03:29:01.568Z,15.35
2023-02-09T03:31:29.098Z,15.98
2023-02-09T03:33:57.563Z,16.15
2023-02-09T03:36:25.169Z,16.38
2023-02-09T03:38:51.751Z,15.60
2023-02-09T03:41:18.316Z,17.65
2023-02-09T03:44:03.396Z,16.33
2023-02-09T03:46:30.017Z,16.17
2023-02-09T03:48:56.526Z,16.73
2023-02-09T03:51:23.165Z,16.77
2023-02-09T03:53:49.705Z,15.98
2023-02-09T03:56:16.302Z,15.77
2023-02-09T03:58:42.865Z,15.05
2023-02-09T04:01:11.142Z,16.00
2023-02-09T04:03:39.809Z,16.13
2023-02-09T04:06:06.523Z,16.33
2023-02-09T04:08:33.260Z,16.52
2023-02-09T04:11:00.135Z,16.98
2023-02-09T04:13:26.794Z,16.27
2023-02-09T04:15:54.051Z,17.13
2023-02-09T04:18:20.797Z,16.52
2023-02-09T04:20:47.845Z,15.77
2023-02-09T04:23:15.151Z,17.73
2023-02-09T04:25:41.742Z,16.85
2023-02-09T04:28:08.396Z,16.90
2023-02-09T04:30:35.128Z,16.50
2023-02-09T04:33:01.720Z,18.15
2023-02-09T04:35:28.241Z,18.13
2023-02-09T04:37:54.756Z,17.40
2023-02-09T04:40:21.307Z,17.98
2023-02-09T04:42:48.164Z,15.93
2023-02-09T04:45:14.890Z,18.58
2023-02-09T04:47:41.455Z,17.48
2023-02-09T04:50:08.364Z,17.35
2023-02-09T04:52:34.929Z,17.45
2023-02-09T04:55:01.482Z,18.33
2023-02-09T04:57:46.697Z,17.48
2023-02-09T05:00:13.890Z,17.27
2023-02-09T05:02:40.569Z,17.30
2023-02-09T05:05:07.343Z,16.65
2023-02-09T05:07:33.817Z,19.05
2023-02-09T05:10:00.283Z,18.77
2023-02-09T05:12:26.960Z,18.92
2023-02-09T05:14:53.605Z,18.38
2023-02-09T05:17:21.136Z,17.45
2023-02-09T05:19:48.578Z,18.20
2023-02-09T05:22:15.661Z,19.42
2023-02-09T05:24:42.213Z,18.00
2023-02-09T05:27:08.807Z,17.55
2023-02-09T05:29:35.390Z,18.02
2023-02-09T05:32:02.004Z,17.55
2023-02-09T05:34:28.553Z,17.42
2023-02-09T05:36:55.017Z,17.63
2023-02-09T05:39:22.414Z,17.45
2023-02-09T05:42:07.650Z,18.65
2023-02-09T05:44:34.181Z,18.67
2023-02-09T05:47:00.705Z,17.75
2023-02-09T05:49:27.235Z,18.75
2023-02-09T05:51:53.921Z,17.42
2023-02-09T05:54:23.120Z,18.88
2023-02-09T05:56:49.702Z,19.42
2023-02-09T05:59:16.252Z,18.05
2023-02-09T06:01:43.016Z,17.60
2023-02-09T06:04:09.692Z,17.55
2023-02-09T06:06:36.341Z,18.10
2023-02-09T06:09:03.538Z,18.02
2023-02-09T06:11:30.234Z,18.52
2023-02-09T06:13:56.843Z,17.77
2023-02-09T06:16:23.615Z,17.67
2023-02-09T06:18:50.188Z,18.77
2023-02-09T06:21:16.698Z,18.50
2023-02-09T06:23:43.308Z,19.98
2023-02-09T06:26:12.156Z,17.08
2023-02-09T06:28:39.254Z,19.27
2023-02-09T06:31:06.571Z,18.08
2023-02-09T06:33:34.012Z,18.08
2023-02-09T06:36:00.714Z,18.27
2023-02-09T06:38:27.441Z,17.50
2023-02-09T06:40:54.039Z,19.52
2023-02-09T06:43:20.595Z,17.70
2023-02-09T06:45:47.137Z,17.25
2023-02-09T06:48:13.724Z,18.00
2023-02-09T06:50:40.349Z,17.33
2023-02-09T06:53:06.929Z,18.75
2023-02-09T06:55:35.475Z,16.48
2023-02-09T06:58:02.048Z,18.00
2023-02-09T07:00:28.706Z,17.40
2023-02-09T07:02:55.367Z,18.50
2023-02-09T07:05:22.070Z,17.30
2023-02-09T07:07:48.585Z,17.95
2023-02-09T07:10:16.320Z,17.70
2023-02-09T07:12:45.744Z,19.27
2023-02-09T07:15:13.709Z,17.95
2023-02-09T07:17:40.772Z,17.10
2023-02-09T07:20:09.135Z,16.30
2023-02-09T07:22:35.699Z,18.60
2023-02-09T07:25:02.259Z,17.65
2023-02-09T07:27:28.793Z,16.77
2023-02-09T07:29:55.326Z,16.17
2023-02-09T07:32:23.985Z,17.13
2023-02-09T07:34:50.581Z,17.43
2023-02-09T07:37:17.308Z,18.33
2023-02-09T07:39:44.328Z,16.95
2023-02-09T07:42:10.946Z,19.10
2023-02-09T07:44:38.073Z,17.55
2023-02-09T07:47:04.714Z,16.00
2023-02-09T07:49:33.972Z,16.52
2023-02-09T07:52:00.523Z,16.20
2023-02-09T07:54:27.109Z,16.25
2023-02-09T07:56:55.420Z,16.23
2023-02-09T07:59:22.051Z,15.93
2023-02-09T08:01:48.638Z,16.73
2023-02-09T08:04:15.217Z,17.23
2023-02-09T08:06:45.939Z,17.77
2023-02-09T08:09:16.582Z,16.65
2023-02-09T08:11:47.618Z,17.23
2023-02-09T08:14:18.132Z,16.58
2023-02-09T08:16:45.426Z,17.92
2023-02-09T08:19:14.414Z,16.90
2023-02-09T08:21:43.411Z,18.10
2023-02-09T08:24:11.457Z,16.65
2023-02-09T08:26:38.055Z,17.20
2023-02-09T08:29:04.730Z,18.17
2023-02-09T08:31:31.372Z,17.50
2023-02-09T08:33:57.974Z,17.88
2023-02-09T08:36:24.543Z,19.02
2023-02-09T08:38:51.040Z,16.60
2023-02-09T08:41:20.660Z,17.33
2023-02-09T08:43:49.287Z,18.48
2023-02-09T08:46:16.351Z,18.53
2023-02-09T08:48:44.544Z,17.17
2023-02-09T08:51:12.471Z,17.50
2023-02-09T08:53:39.134Z,16.35
2023-02-09T08:56:05.978Z,17.73
2023-02-09T08:58:33.500Z,16.70
2023-02-09T09:01:00.534Z,17.30
2023-02-09T09:03:30.085Z,18.15
2023-02-09T09:08:31.651Z,16.35
2023-02-09T09:10:58.468Z,18.02
2023-02-09T09:13:25.100Z,17.70
2023-02-09T09:15:52.779Z,18.05
2023-02-09T09:18:19.385Z,16.40
2023-02-09T09:20:45.966Z,16.73
2023-02-09T09:23:12.660Z,17.52
2023-02-09T09:25:40.100Z,17.48
2023-02-09T09:28:07.662Z,17.00
2023-02-09T09:30:34.482Z,17.25
2023-02-09T09:33:01.429Z,17.35
2023-02-09T09:35:28.178Z,16.27
2023-02-09T09:37:57.571Z,15.88
2023-02-09T09:40:35.946Z,15.85
2023-02-09T09:43:05.112Z,16.33
2023-02-09T09:45:33.610Z,15.68
2023-02-09T09:48:00.253Z,16.45
2023-02-09T09:50:42.068Z,15.50
2023-02-09T09:53:31.914Z,15.55
2023-02-09T09:56:00.001Z,15.00
2023-02-09T09:58:27.860Z,15.50
2023-02-09T10:00:54.719Z,15.07
2023-02-09T10:03:23.523Z,15.05
2023-02-09T10:05:55.828Z,15.95
2023-02-09T10:08:33.005Z,14.43
2023-02-09T10:11:17.286Z,15.82
2023-02-09T10:13:55.300Z,13.48
2023-02-09T10:16:27.506Z,14.60
2023-02-09T10:19:02.224Z,14.70
2023-02-09T10:21:34.098Z,14.07
2023-02-09T10:24:00.537Z,14.98
2023-02-09T10:26:31.121Z,13.90
2023-02-09T10:29:08.220Z,13.27
2023-02-09T10:32:09.641Z,13.73
2023-02-09T10:34:40.816Z,13.00
2023-02-09T10:37:26.691Z,13.82
2023-02-09T10:40:26.615Z,12.98
2023-02-09T10:42:58.801Z,13.18
2023-02-09T10:45:45.724Z,13.15
2023-02-09T10:48:12.382Z,12.77
2023-02-09T10:50:59.074Z,13.52
2023-02-09T10:53:31.632Z,11.98
2023-02-09T10:56:03.262Z,12.73
2023-02-09T10:58:35.832Z,12.32
2023-02-09T11:01:11.678Z,11.55
2023-02-09T11:03:57.561Z,10.88
2023-02-09T11:06:24.189Z,11.10
2023-02-09T11:09:04.051Z,12.13
2023-02-09T11:11:38.436Z,11.55
2023-02-09T11:14:14.335Z,11.65
2023-02-09T11:17:01.176Z,12.82
2023-02-09T11:19:48.783Z,11.52
2023-02-09T11:22:30.607Z,11.07
2023-02-09T11:25:18.917Z,11.27
2023-02-09T11:28:23.171Z,11.45
2023-02-09T11:31:14.210Z,12.00
2023-02-09T11:34:05.288Z,10.88
2023-02-09T11:37:06.907Z,12.02
2023-02-09T11:39:56.450Z,10.90
2023-02-09T11:42:45.168Z,11.93
2023-02-09T11:45:27.985Z,10.88
2023-02-09T11:48:26.921Z,11.57
2023-02-09T11:51:15.429Z,11.02
2023-02-09T11:54:00.755Z,9.97
2023-02-09T11:56:28.477Z,12.30
2023-02-09T11:59:01.349Z,10.95
2023-02-09T12:01:51.925Z,10.25
2023-02-09T12:04:18.408Z,10.48
2023-02-09T12:06:48.387Z,11.70
2023-02-09T12:09:55.970Z,11.60
2023-02-09T12:12:33.262Z,10.73
2023-02-09T12:15:21.359Z,11.95
2023-02-09T12:17:59.842Z,10.90
2023-02-09T12:20:26.335Z,10.60
2023-02-09T12:23:01.043Z,11.55
2023-02-09T12:25:59.944Z,11.45
2023-02-09T12:28:29.623Z,11.05
2023-02-09T12:31:04.477Z,10.88
2023-02-09T12:33:35.039Z,11.48
2023-02-09T12:36:10.707Z,10.23
2023-02-09T12:39:08.092Z,10.40
2023-02-09T12:41:34.512Z,10.77
2023-02-09T12:44:10.113Z,11.00
2023-02-09T12:46:46.725Z,10.98
2023-02-09T12:49:19.908Z,10.73
2023-02-09T12:51:58.458Z,10.68
2023-02-09T12:54:40.195Z,11.35
2023-02-09T12:57:15.789Z,11.38
2023-02-09T12:59:51.496Z,10.98
2023-02-09T13:02:29.546Z,10.50
2023-02-09T13:05:17.555Z,10.43
2023-02-09T13:08:02.247Z,10.77
2023-02-09T13:10:37.894Z,10.57
2023-02-09T13:13:17.595Z,10.95
2023-02-09T13:15:56.403Z,11.00
2023-02-09T13:18:51.652Z,10.32
2023-02-09T13:21:53.541Z,9.88
2023-02-09T13:24:23.751Z,10.57
2023-02-09T13:26:53.683Z,10.82
2023-02-09T13:29:22.861Z,10.63
2023-02-09T13:32:09.703Z,9.77
2023-02-09T13:34:58.794Z,10.65
2023-02-09T13:37:28.358Z,10.95
2023-02-09T13:42:30.010Z,10.48
2023-02-09T13:44:58.840Z,10.35
2023-02-09T13:47:26.604Z,10.75
2023-02-09T13:50:02.122Z,10.80
2023-02-09T13:52:38.928Z,9.93
2023-02-09T13:55:23.924Z,10.32
2023-02-09T13:58:03.116Z,10.30
2023-02-09T14:00:38.869Z,10.07
2023-02-09T14:03:15.622Z,10.35
2023-02-09T14:05:59.716Z,10.35
2023-02-09T14:08:27.183Z,10.60
2023-02-09T14:10:57.262Z,9.82
2023-02-09T14:13:30.561Z,10.65
2023-02-09T14:16:08.646Z,10.25
2023-02-09T14:18:49.264Z,9.93
2023-02-09T14:21:25.179Z,10.27
2023-02-09T14:24:00.596Z,11.07
2023-02-09T14:26:29.398Z,10.32
2023-02-09T14:29:18.164Z,10.02
2023-02-09T14:31:56.498Z,11.85
2023-02-09T14:34:32.313Z,10.52
2023-02-09T14:37:22.678Z,10.90
2023-02-09T14:39:54.662Z,10.18
2023-02-09T14:42:21.388Z,10.63
2023-02-09T14:44:53.957Z,9.48
2023-02-09T14:47:40.087Z,10.50
2023-02-09T14:50:26.299Z,9.90
2023-02-09T14:53:05.738Z,9.93
2023-02-09T14:55:35.662Z,11.60
2023-02-09T14:58:12.727Z,10.02
2023-02-09T15:00:39.255Z,10.38
2023-02-09T15:03:05.947Z,10.57
2023-02-09T15:05:32.633Z,10.50
2023-02-09T15:08:04.224Z,10.52
2023-02-09T15:10:34.740Z,11.20
2023-02-09T15:13:03.084Z,11.25
2023-02-09T15:15:29.727Z,10.50
2023-02-09T15:17:57.577Z,11.27
2023-02-09T15:20:25.257Z,11.75
2023-02-09T15:22:55.592Z,11.07
2023-02-09T15:25:23.304Z,10.38
2023-02-09T15:27:58.315Z,10.25
2023-02-09T15:30:30.406Z,11.35
2023-02-09T15:32:56.882Z,10.98
2023-02-09T15:35:25.307Z,11.40
2023-02-09T15:37:54.032Z,11.02
2023-02-09T15:40:43.164Z,11.57
2023-02-09T15:43:33.857Z,11.93
2023-02-09T15:46:09.515Z,11.63
2023-02-09T15:48:36.929Z,11.57
2023-02-09T15:51:03.715Z,10.77
2023-02-09T15:53:32.035Z,11.68
2023-02-09T15:55:58.927Z,12.60
2023-02-09T15:58:37.300Z,11.68
2023-02-09T16:01:04.660Z,12.80
2023-02-09T16:03:37.069Z,12.20
2023-02-09T16:06:20.901Z,12.95
2023-02-09T16:08:48.293Z,12.18
2023-02-09T16:11:29.359Z,12.35
2023-02-09T16:13:55.867Z,12.85
2023-02-09T16:16:24.771Z,12.73
2023-02-09T16:18:51.737Z,13.30
2023-02-09T16:21:27.053Z,13.18
2023-02-09T16:23:55.647Z,11.70
2023-02-09T16:26:24.357Z,12.00
2023-02-09T16:28:51.885Z,12.50
2023-02-09T16:31:19.660Z,11.07
2023-02-09T16:33:46.954Z,12.25
2023-02-09T16:36:16.103Z,12.77
2023-02-09T16:38:42.961Z,13.10
2023-02-09T16:41:32.523Z,12.60
2023-02-09T16:44:06.725Z,11.25
2023-02-09T16:46:33.765Z,12.25
2023-02-09T16:49:00.936Z,12.63
2023-02-09T16:51:27.646Z,13.75
2023-02-09T16:53:55.522Z,11.63
2023-02-09T16:56:22.118Z,12.45
2023-02-09T16:58:49.480Z,14.15
2023-02-09T17:01:18.786Z,12.85
2023-02-09T17:03:48.690Z,12.88
2023-02-09T17:06:18.253Z,13.95
2023-02-09T17:11:18.702Z,12.73
2023-02-09T17:13:45.700Z,14.30
2023-02-09T17:16:23.194Z,13.38
2023-02-09T17:18:52.829Z,13.32
2023-02-09T17:21:26.076Z,14.75
2023-02-09T17:23:53.240Z,12.95
2023-02-09T17:26:20.767Z,13.57
2023-02-09T17:28:47.743Z,13.75
2023-02-09T17:31:24.465Z,13.38
2023-02-09T17:33:53.617Z,12.90
2023-02-09T17:36:26.813Z,14.63
2023-02-09T17:38:58.226Z,13.52
2023-02-09T17:41:34.758Z,14.70
2023-02-09T17:44:22.401Z,15.18
2023-02-09T17:46:55.351Z,14.60
2023-02-09T17:49:22.189Z,14.32
2023-02-09T17:51:49.158Z,14.60
2023-02-09T17:54:18.747Z,15.48
2023-02-09T17:59:13.308Z,14.48
2023-02-09T18:01:45.234Z,12.48
2023-02-09T18:04:20.873Z,13.55
2023-02-09T18:06:47.499Z,13.68
2023-02-09T18:09:14.436Z,14.13
2023-02-09T18:11:45.482Z,13.82
2023-02-09T18:14:13.295Z,14.70
2023-02-09T18:16:41.313Z,12.38
2023-02-09T18:19:11.869Z,14.05
2023-02-09T18:21:39.287Z,13.15
2023-02-09T18:24:06.319Z,12.02
2023-02-09T18:26:33.689Z,13.43
2023-02-09T18:29:00.174Z,12.88
2023-02-09T18:31:26.674Z,12.15
2023-02-09T18:33:54.069Z,12.80
2023-02-09T18:36:20.771Z,12.13
2023-02-09T18:38:48.276Z,12.38
2023-02-09T18:41:14.905Z,12.93
2023-02-09T18:43:41.400Z,13.10
2023-02-09T18:46:07.978Z,14.38
2023-02-09T18:48:34.683Z,12.82
2023-02-09T18:51:01.365Z,13.27
2023-02-09T18:53:27.930Z,13.27
2023-02-09T18:55:54.559Z,12.05
2023-02-09T18:58:21.096Z,13.23
2023-02-09T19:00:49.315Z,13.23
2023-02-09T19:03:18.446Z,13.38
2023-02-09T19:05:45.278Z,12.32
2023-02-09T19:08:12.584Z,11.68
2023-02-09T19:10:39.672Z,12.55
2023-02-09T19:13:06.514Z,13.32
2023-02-09T19:15:34.633Z,12.65
2023-02-09T19:18:01.903Z,12.60
2023-02-09T19:20:30.178Z,13.23
2023-02-09T19:22:56.852Z,12.40
2023-02-09T19:25:26.048Z,12.48
2023-02-09T19:27:53.507Z,12.50
2023-02-09T19:30:24.988Z,13.07
2023-02-09T19:32:53.615Z,12.27
2023-02-09T19:35:22.578Z,13.43
2023-02-09T19:37:56.836Z,11.38
2023-02-09T19:40:33.667Z,11.88
2023-02-09T19:43:00.425Z,13.23
2023-02-09T19:45:27.056Z,12.02
2023-02-09T19:47:53.630Z,12.18
2023-02-09T19:50:20.322Z,12.60
2023-02-09T19:52:49.069Z,12.55
2023-02-09T19:55:15.648Z,12.98
2023-02-09T19:57:42.712Z,13.95
2023-02-09T20:00:14.659Z,12.25
2023-02-09T20:02:47.478Z,11.80
2023-02-09T20:05:15.386Z,12.10
2023-02-09T20:07:42.264Z,11.85
2023-02-09T20:10:09.768Z,11.75
2023-02-09T20:12:36.302Z,11.43
2023-02-09T20:15:02.983Z,11.30
2023-02-09T20:17:30.260Z,11.10
2023-02-09T20:19:56.824Z,12.18
2023-02-09T20:22:23.396Z,12.02
2023-02-09T20:24:50.087Z,12.07
2023-02-09T20:27:18.629Z,11.65
2023-02-09T20:29:45.223Z,12.23
2023-02-09T20:32:11.906Z,12.10
2023-02-09T20:34:38.641Z,12.60
2023-02-09T20:37:05.198Z,11.75
2023-02-09T20:39:31.765Z,11.18
2023-02-09T20:42:17.895Z,11.25
2023-02-09T20:45:03.004Z,12.32
2023-02-09T20:47:32.921Z,11.13
2023-02-09T20:50:00.340Z,12.40
2023-02-09T20:52:28.576Z,11.48
2023-02-09T20:54:55.782Z,11.13
2023-02-09T20:57:29.340Z,12.43
2023-02-09T20:59:59.574Z,12.00
2023-02-09T21:02:26.664Z,13.05
2023-02-09T21:04:57.187Z,11.82
2023-02-09T21:07:25.136Z,12.95
2023-02-09T21:09:54.016Z,11.68
2023-02-09T21:12:21.241Z,11.40
2023-02-09T21:14:47.885Z,11.43
2023-02-09T21:17:14.731Z,10.60
2023-02-09T21:19:41.391Z,10.38
2023-02-09T21:22:08.245Z,10.32
2023-02-09T21:24:35.021Z,10.98
2023-02-09T21:27:01.735Z,9.60
2023-02-09T21:29:29.395Z,9.57
2023-02-09T21:32:06.796Z,8.70
2023-02-09T21:34:33.604Z,9.52
2023-02-09T21:37:00.191Z,8.85
2023-02-09T21:39:26.878Z,10.52
2023-02-09T21:42:11.986Z,7.80
2023-02-09T21:44:38.691Z,7.43
2023-02-09T21:47:05.480Z,7.65
2023-02-09T21:49:32.388Z,7.30
2023-02-09T21:51:59.502Z,7.05
2023-02-09T21:54:28.224Z,6.47
2023-02-09T21:59:22.003Z,5.20
2023-02-09T22:01:48.528Z,5.40
2023-02-09T22:04:15.136Z,5.43
2023-02-09T22:06:41.953Z,4.57
2023-02-09T22:09:08.550Z,4.88
2023-02-09T22:11:35.152Z,4.43
2023-02-09T22:14:02.208Z,4.57
2023-02-09T22:16:29.611Z,4.70
2023-02-09T22:18:56.530Z,4.20
2023-02-09T22:21:23.172Z,5.28
2023-02-09T22:23:51.895Z,4.57
2023-02-09T22:26:18.505Z,3.42
2023-02-09T22:28:46.611Z,3.70
2023-02-09T22:31:15.798Z,3.50
2023-02-09T22:33:42.550Z,3.08
2023-02-09T22:36:12.484Z,3.03
2023-02-09T22:38:39.237Z,2.85
2023-02-09T22:41:21.348Z,3.20
2023-02-09T22:43:55.584Z,2.28
2023-02-09T22:46:25.969Z,2.78
2023-02-09T22:48:53.484Z,2.03
2023-02-09T22:51:20.757Z,2.70
2023-02-09T22:53:47.389Z,1.95
2023-02-09T22:56:14.475Z,2.42
2023-02-09T22:58:41.338Z,1.70
2023-02-09T23:01:08.272Z,1.67
2023-02-09T23:03:34.944Z,2.22
2023-02-09T23:06:06.988Z,2.75
2023-02-09T23:08:33.945Z,2.17
2023-02-09T23:11:12.832Z,2.03
2023-02-09T23:13:39.846Z,2.22
2023-02-09T23:16:20.577Z,2.15
2023-02-09T23:18:48.165Z,2.40
2023-02-09T23:21:15.380Z,2.00
2023-02-09T23:23:41.920Z,2.53
2023-02-09T23:26:08.482Z,2.03
2023-02-09T23:28:35.161Z,2.00
2023-02-09T23:31:10.546Z,2.30
2023-02-09T23:33:37.588Z,2.13
2023-02-09T23:36:09.966Z,2.28
2023-02-09T23:38:36.759Z,2.55
2023-02-09T23:41:11.932Z,1.63
2023-02-09T23:43:38.915Z,2.78
2023-02-09T23:46:07.841Z,2.47
2023-02-09T23:48:34.705Z,2.03
2023-02-09T23:51:03.119Z,2.78
2023-02-09T23:53:30.459Z,2.25
2023-02-09T23:56:03.591Z,2.75
2023-02-09T23:58:38.705Z,2.55
